Roswell, GA (30076)

7:53 AM EDT on August 27, 2016 (GMT -0400)
MesoWest | | Change Station

Elev 921 ft 34.01 °N, 84.33 °W | Updated 33 minutes ago

Partly Cloudy
Partly Cloudy
73 °F
Feels Like 73 °F
N
1
Wind Variable Wind from NNW
Gusts 8.0 mph

Today
High -- | Low -- °F
--% Chance of Precip.
Yesterday
High -- | Low -- °F
Precip. -- in
Pressure 30.04 in
Visibility 10.0 miles
Clouds Few 5500 ft
Dew Point 71 °F
Humidity 94%
Rainfall in
Snow Depth Not available.
7:07 AM 8:08 PM
Waning Crescent, 25% visible
METAR KPDK 271053Z 00000KT 10SM FEW055 23/21 A3009 RMK AO2 SLP170 T02330211
Pressure 30.04 in
Visibility 10.0 miles
Clouds Few 5500 ft
Dew Point 71 °F
Humidity 94%
Rainfall in
Snow Depth Not available.
7:07 AM 8:08 PM
Waning Crescent, 25% visible
METAR KPDK 271053Z 00000KT 10SM FEW055 23/21 A3009 RMK AO2 SLP170 T02330211

10-Day Weather Forecast

Almanac

Astronomy

Aug. 27, 2016 Rise Set
Actual Time
Civil Twilight
Nautical Twilight
Astronomical Twilight
Moon
Length of Visible Light
Length of Day
Tomorrow will be .
, % of the Moon is Illuminated

Today's Extremes

State Highs State Lows

Community

WunderPhotos

Upload Photos

1,935,325 photos uploaded!

WunderBlog® & News

Nearby

Air Quality

  Air Quality AQ Index Pollutant
Not available.

Snow Depth

Station Depth Elevation

Earthquake Activity

City Distance Mag. Time & Date
Minimum magnitude displayed is 2.5.

Coastal Water Temperatures

Place Temperature

Stations

Nearby Weather Stations

Station Location Temp. Windchill Dew Point Humidity Wind Precip. Elev Updated Type
                   

Watches & Warnings

There are currently no watches in effect.